sensor_id;sensor_type;location;lat;lon;timestamp;P1;durP1;ratioP1;P2;durP2;ratioP2
54745;SDS011;40640;48.130;11.356;2023-04-02T00:01:34;1.60;;;0.50;;
54745;SDS011;40640;48.130;11.356;2023-04-02T00:05:41;1.27;;;0.63;;
54745;SDS011;40640;48.130;11.356;2023-04-02T00:09:53;2.67;;;0.45;;
54745;SDS011;40640;48.130;11.356;2023-04-02T00:13:57;1.13;;;0.60;;
54745;SDS011;40640;48.130;11.356;2023-04-02T00:18:03;0.80;;;0.43;;
54745;SDS011;40640;48.130;11.356;2023-04-02T00:22:07;0.65;;;0.30;;
54745;SDS011;40640;48.130;11.356;2023-04-02T00:26:23;1.30;;;0.50;;
54745;SDS011;40640;48.130;11.356;2023-04-02T00:30:30;0.43;;;0.28;;
54745;SDS011;40640;48.130;11.356;2023-04-02T00:34:34;0.80;;;0.38;;
54745;SDS011;40640;48.130;11.356;2023-04-02T00:38:38;0.85;;;0.55;;
54745;SDS011;40640;48.130;11.356;2023-04-02T00:42:45;0.82;;;0.30;;
54745;SDS011;40640;48.130;11.356;2023-04-02T00:46:49;1.98;;;0.40;;
54745;SDS011;40640;48.130;11.356;2023-04-02T00:50:53;1.48;;;0.63;;
54745;SDS011;40640;48.130;11.356;2023-04-02T00:54:58;0.57;;;0.40;;
54745;SDS011;40640;48.130;11.356;2023-04-02T00:59:14;0.68;;;0.22;;
54745;SDS011;40640;48.130;11.356;2023-04-02T01:03:28;2.03;;;0.60;;
54745;SDS011;40640;48.130;11.356;2023-04-02T01:07:49;1.88;;;0.47;;
54745;SDS011;40640;48.130;11.356;2023-04-02T01:12:07;0.88;;;0.30;;
54745;SDS011;40640;48.130;11.356;2023-04-02T01:16:23;1.27;;;0.35;;
54745;SDS011;40640;48.130;11.356;2023-04-02T01:20:41;1.23;;;0.20;;
54745;SDS011;40640;48.130;11.356;2023-04-02T01:29:09;0.82;;;0.60;;
54745;SDS011;40640;48.130;11.356;2023-04-02T01:33:14;2.03;;;0.38;;
54745;SDS011;40640;48.130;11.356;2023-04-02T01:37:22;3.45;;;0.60;;
54745;SDS011;40640;48.130;11.356;2023-04-02T01:41:36;3.03;;;0.32;;
54745;SDS011;40640;48.130;11.356;2023-04-02T01:45:44;2.83;;;0.63;;
54745;SDS011;40640;48.130;11.356;2023-04-02T01:49:47;1.08;;;0.55;;
54745;SDS011;40640;48.130;11.356;2023-04-02T01:53:49;1.33;;;0.45;;
54745;SDS011;40640;48.130;11.356;2023-04-02T01:57:53;0.80;;;0.60;;
54745;SDS011;40640;48.130;11.356;2023-04-02T02:01:58;1.65;;;0.40;;
54745;SDS011;40640;48.130;11.356;2023-04-02T02:06:05;0.63;;;0.55;;
54745;SDS011;40640;48.130;11.356;2023-04-02T02:10:09;0.98;;;0.35;;
54745;SDS011;40640;48.130;11.356;2023-04-02T02:14:16;1.35;;;0.30;;
54745;SDS011;40640;48.130;11.356;2023-04-02T02:18:22;2.70;;;0.70;;
54745;SDS011;40640;48.130;11.356;2023-04-02T02:22:27;0.80;;;0.77;;
54745;SDS011;40640;48.130;11.356;2023-04-02T02:26:31;1.42;;;0.38;;
54745;SDS011;40640;48.130;11.356;2023-04-02T02:30:37;1.50;;;0.50;;
54745;SDS011;40640;48.130;11.356;2023-04-02T02:34:47;2.35;;;0.40;;
54745;SDS011;40640;48.130;11.356;2023-04-02T02:38:58;1.15;;;0.40;;
54745;SDS011;40640;48.130;11.356;2023-04-02T02:43:14;3.60;;;0.40;;
54745;SDS011;40640;48.130;11.356;2023-04-02T02:47:20;3.03;;;0.75;;
54745;SDS011;40640;48.130;11.356;2023-04-02T02:51:29;4.53;;;0.80;;
54745;SDS011;40640;48.130;11.356;2023-04-02T02:55:42;1.90;;;0.60;;
54745;SDS011;40640;48.130;11.356;2023-04-02T02:59:53;0.73;;;0.30;;
54745;SDS011;40640;48.130;11.356;2023-04-02T03:03:59;2.13;;;0.43;;
54745;SDS011;40640;48.130;11.356;2023-04-02T03:08:05;3.10;;;0.60;;
54745;SDS011;40640;48.130;11.356;2023-04-02T03:12:27;1.35;;;0.30;;
54745;SDS011;40640;48.130;11.356;2023-04-02T03:16:37;1.42;;;0.60;;
54745;SDS011;40640;48.130;11.356;2023-04-02T03:20:45;0.32;;;0.30;;
54745;SDS011;40640;48.130;11.356;2023-04-02T03:24:52;2.17;;;0.47;;
54745;SDS011;40640;48.130;11.356;2023-04-02T03:29:00;1.55;;;0.43;;
54745;SDS011;40640;48.130;11.356;2023-04-02T03:33:10;3.78;;;1.00;;
54745;SDS011;40640;48.130;11.356;2023-04-02T03:37:17;2.17;;;0.60;;
54745;SDS011;40640;48.130;11.356;2023-04-02T03:41:27;1.75;;;0.47;;
54745;SDS011;40640;48.130;11.356;2023-04-02T03:45:34;2.95;;;0.40;;
54745;SDS011;40640;48.130;11.356;2023-04-02T03:49:42;1.85;;;0.30;;
54745;SDS011;40640;48.130;11.356;2023-04-02T03:53:49;2.15;;;0.20;;
54745;SDS011;40640;48.130;11.356;2023-04-02T03:57:54;1.77;;;0.45;;
54745;SDS011;40640;48.130;11.356;2023-04-02T04:02:07;2.63;;;0.40;;
54745;SDS011;40640;48.130;11.356;2023-04-02T04:06:19;2.08;;;0.45;;
54745;SDS011;40640;48.130;11.356;2023-04-02T04:10:26;0.98;;;0.43;;
54745;SDS011;40640;48.130;11.356;2023-04-02T04:14:32;1.95;;;0.32;;
54745;SDS011;40640;48.130;11.356;2023-04-02T04:18:39;1.20;;;0.50;;
54745;SDS011;40640;48.130;11.356;2023-04-02T04:22:49;1.38;;;0.43;;
54745;SDS011;40640;48.130;11.356;2023-04-02T04:26:59;2.67;;;0.68;;
54745;SDS011;40640;48.130;11.356;2023-04-02T04:31:17;3.45;;;0.85;;
54745;SDS011;40640;48.130;11.356;2023-04-02T04:35:28;1.73;;;0.73;;
54745;SDS011;40640;48.130;11.356;2023-04-02T04:39:39;2.08;;;0.50;;
54745;SDS011;40640;48.130;11.356;2023-04-02T04:43:45;1.17;;;0.28;;
54745;SDS011;40640;48.130;11.356;2023-04-02T04:47:56;2.95;;;0.40;;
54745;SDS011;40640;48.130;11.356;2023-04-02T04:52:05;1.30;;;0.52;;
54745;SDS011;40640;48.130;11.356;2023-04-02T04:56:12;2.40;;;0.45;;
54745;SDS011;40640;48.130;11.356;2023-04-02T05:00:26;0.43;;;0.40;;
54745;SDS011;40640;48.130;11.356;2023-04-02T05:04:37;0.60;;;0.45;;
54745;SDS011;40640;48.130;11.356;2023-04-02T05:08:46;0.60;;;0.40;;
54745;SDS011;40640;48.130;11.356;2023-04-02T05:12:53;1.00;;;0.70;;
54745;SDS011;40640;48.130;11.356;2023-04-02T05:17:02;1.60;;;0.50;;
54745;SDS011;40640;48.130;11.356;2023-04-02T05:21:12;0.93;;;0.43;;
54745;SDS011;40640;48.130;11.356;2023-04-02T05:25:21;1.60;;;0.32;;
54745;SDS011;40640;48.130;11.356;2023-04-02T05:29:29;4.75;;;0.63;;
54745;SDS011;40640;48.130;11.356;2023-04-02T05:33:37;2.05;;;0.65;;
54745;SDS011;40640;48.130;11.356;2023-04-02T05:37:43;0.85;;;0.50;;
54745;SDS011;40640;48.130;11.356;2023-04-02T05:41:55;0.60;;;0.43;;
54745;SDS011;40640;48.130;11.356;2023-04-02T05:46:13;5.75;;;2.15;;
54745;SDS011;40640;48.130;11.356;2023-04-02T05:50:22;1.10;;;0.50;;
54745;SDS011;40640;48.130;11.356;2023-04-02T05:54:33;1.90;;;0.50;;
54745;SDS011;40640;48.130;11.356;2023-04-02T05:58:40;1.77;;;0.40;;
54745;SDS011;40640;48.130;11.356;2023-04-02T06:02:54;0.82;;;0.50;;
54745;SDS011;40640;48.130;11.356;2023-04-02T06:07:03;2.08;;;0.68;;
54745;SDS011;40640;48.130;11.356;2023-04-02T06:11:15;1.48;;;0.60;;
54745;SDS011;40640;48.130;11.356;2023-04-02T06:15:25;1.52;;;0.50;;
54745;SDS011;40640;48.130;11.356;2023-04-02T06:19:34;5.47;;;0.85;;
54745;SDS011;40640;48.130;11.356;2023-04-02T06:23:40;0.63;;;0.20;;
54745;SDS011;40640;48.130;11.356;2023-04-02T06:27:48;1.13;;;0.65;;
54745;SDS011;40640;48.130;11.356;2023-04-02T06:31:54;1.30;;;0.40;;
54745;SDS011;40640;48.130;11.356;2023-04-02T06:36:00;0.65;;;0.40;;
54745;SDS011;40640;48.130;11.356;2023-04-02T06:40:16;0.93;;;0.60;;
54745;SDS011;40640;48.130;11.356;2023-04-02T06:44:39;1.08;;;0.50;;
54745;SDS011;40640;48.130;11.356;2023-04-02T06:49:03;1.15;;;0.55;;
54745;SDS011;40640;48.130;11.356;2023-04-02T06:53:17;3.33;;;0.90;;
54745;SDS011;40640;48.130;11.356;2023-04-02T06:57:24;1.15;;;0.70;;
54745;SDS011;40640;48.130;11.356;2023-04-02T07:01:29;1.83;;;0.88;;
54745;SDS011;40640;48.130;11.356;2023-04-02T07:05:37;2.47;;;0.70;;
54745;SDS011;40640;48.130;11.356;2023-04-02T07:09:43;1.13;;;0.63;;
54745;SDS011;40640;48.130;11.356;2023-04-02T07:13:47;1.88;;;0.70;;
54745;SDS011;40640;48.130;11.356;2023-04-02T07:17:52;2.58;;;0.70;;
54745;SDS011;40640;48.130;11.356;2023-04-02T07:21:58;1.25;;;0.70;;
54745;SDS011;40640;48.130;11.356;2023-04-02T07:26:08;1.55;;;0.60;;
54745;SDS011;40640;48.130;11.356;2023-04-02T07:30:15;3.78;;;0.95;;
54745;SDS011;40640;48.130;11.356;2023-04-02T07:34:19;1.65;;;0.70;;
54745;SDS011;40640;48.130;11.356;2023-04-02T07:38:22;2.10;;;0.88;;
54745;SDS011;40640;48.130;11.356;2023-04-02T07:42:26;3.00;;;0.70;;
54745;SDS011;40640;48.130;11.356;2023-04-02T07:46:28;2.15;;;0.50;;
54745;SDS011;40640;48.130;11.356;2023-04-02T07:50:33;3.50;;;1.08;;
54745;SDS011;40640;48.130;11.356;2023-04-02T07:54:36;2.63;;;0.90;;
54745;SDS011;40640;48.130;11.356;2023-04-02T07:58:40;2.55;;;0.75;;
54745;SDS011;40640;48.130;11.356;2023-04-02T08:02:43;2.47;;;0.93;;
54745;SDS011;40640;48.130;11.356;2023-04-02T08:06:48;2.33;;;0.90;;
54745;SDS011;40640;48.130;11.356;2023-04-02T08:10:53;2.42;;;0.70;;
54745;SDS011;40640;48.130;11.356;2023-04-02T08:14:56;2.58;;;0.88;;
54745;SDS011;40640;48.130;11.356;2023-04-02T08:18:58;1.42;;;0.60;;
54745;SDS011;40640;48.130;11.356;2023-04-02T08:23:03;1.23;;;0.60;;
54745;SDS011;40640;48.130;11.356;2023-04-02T08:27:09;2.05;;;0.80;;
54745;SDS011;40640;48.130;11.356;2023-04-02T08:31:15;1.55;;;0.60;;
54745;SDS011;40640;48.130;11.356;2023-04-02T08:35:17;2.38;;;0.80;;
54745;SDS011;40640;48.130;11.356;2023-04-02T08:39:22;1.60;;;0.90;;
54745;SDS011;40640;48.130;11.356;2023-04-02T08:47:57;0.98;;;0.47;;
54745;SDS011;40640;48.130;11.356;2023-04-02T08:52:03;1.35;;;0.52;;
54745;SDS011;40640;48.130;11.356;2023-04-02T08:56:08;5.20;;;0.70;;
54745;SDS011;40640;48.130;11.356;2023-04-02T09:00:22;2.35;;;0.77;;
54745;SDS011;40640;48.130;11.356;2023-04-02T09:04:31;4.93;;;0.77;;
54745;SDS011;40640;48.130;11.356;2023-04-02T09:08:35;2.85;;;1.13;;
54745;SDS011;40640;48.130;11.356;2023-04-02T09:12:39;5.03;;;0.73;;
54745;SDS011;40640;48.130;11.356;2023-04-02T09:16:45;0.73;;;0.70;;
54745;SDS011;40640;48.130;11.356;2023-04-02T09:24:54;0.85;;;0.43;;
54745;SDS011;40640;48.130;11.356;2023-04-02T09:29:00;3.67;;;0.60;;
54745;SDS011;40640;48.130;11.356;2023-04-02T09:33:16;2.08;;;0.60;;
54745;SDS011;40640;48.130;11.356;2023-04-02T09:37:20;3.58;;;0.77;;
54745;SDS011;40640;48.130;11.356;2023-04-02T09:41:26;2.08;;;0.55;;
54745;SDS011;40640;48.130;11.356;2023-04-02T09:45:31;1.40;;;0.80;;
54745;SDS011;40640;48.130;11.356;2023-04-02T09:49:35;2.10;;;0.60;;
54745;SDS011;40640;48.130;11.356;2023-04-02T09:53:40;1.83;;;0.70;;
54745;SDS011;40640;48.130;11.356;2023-04-02T09:57:45;2.25;;;0.60;;
54745;SDS011;40640;48.130;11.356;2023-04-02T10:01:57;0.88;;;0.70;;
54745;SDS011;40640;48.130;11.356;2023-04-02T10:06:04;2.15;;;0.75;;
54745;SDS011;40640;48.130;11.356;2023-04-02T10:10:14;3.70;;;0.88;;
54745;SDS011;40640;48.130;11.356;2023-04-02T10:14:22;1.77;;;0.60;;
54745;SDS011;40640;48.130;11.356;2023-04-02T10:18:40;1.70;;;1.25;;
54745;SDS011;40640;48.130;11.356;2023-04-02T10:22:48;0.70;;;0.52;;
54745;SDS011;40640;48.130;11.356;2023-04-02T10:26:53;0.95;;;0.70;;
54745;SDS011;40640;48.130;11.356;2023-04-02T10:31:04;0.50;;;0.50;;
54745;SDS011;40640;48.130;11.356;2023-04-02T10:35:17;0.57;;;0.50;;
54745;SDS011;40640;48.130;11.356;2023-04-02T10:39:27;0.65;;;0.57;;
54745;SDS011;40640;48.130;11.356;2023-04-02T10:43:38;0.20;;;0.20;;
54745;SDS011;40640;48.130;11.356;2023-04-02T10:48:14;2.55;;;2.13;;
54745;SDS011;40640;48.130;11.356;2023-04-02T10:52:25;3.35;;;0.70;;
54745;SDS011;40640;48.130;11.356;2023-04-02T10:56:30;0.40;;;0.40;;
54745;SDS011;40640;48.130;11.356;2023-04-02T11:00:51;0.60;;;0.30;;
54745;SDS011;40640;48.130;11.356;2023-04-02T11:04:56;1.08;;;0.70;;
54745;SDS011;40640;48.130;11.356;2023-04-02T11:09:04;1.58;;;0.57;;
54745;SDS011;40640;48.130;11.356;2023-04-02T11:13:17;2.85;;;1.42;;
54745;SDS011;40640;48.130;11.356;2023-04-02T11:17:23;1.52;;;0.70;;
54745;SDS011;40640;48.130;11.356;2023-04-02T11:21:36;1.55;;;0.55;;
54745;SDS011;40640;48.130;11.356;2023-04-02T11:30:41;4.63;;;2.42;;
54745;SDS011;40640;48.130;11.356;2023-04-02T11:34:58;1.73;;;0.47;;
54745;SDS011;40640;48.130;11.356;2023-04-02T11:39:44;0.70;;;0.57;;
54745;SDS011;40640;48.130;11.356;2023-04-02T11:44:00;0.77;;;0.40;;
54745;SDS011;40640;48.130;11.356;2023-04-02T11:52:36;1.20;;;0.40;;
54745;SDS011;40640;48.130;11.356;2023-04-02T11:56:53;0.73;;;0.40;;
54745;SDS011;40640;48.130;11.356;2023-04-02T12:05:46;1.20;;;0.68;;
54745;SDS011;40640;48.130;11.356;2023-04-02T12:09:56;1.95;;;0.68;;
54745;SDS011;40640;48.130;11.356;2023-04-02T12:14:06;1.35;;;0.90;;
54745;SDS011;40640;48.130;11.356;2023-04-02T12:18:29;1.92;;;0.60;;
54745;SDS011;40640;48.130;11.356;2023-04-02T12:22:34;1.17;;;0.68;;
54745;SDS011;40640;48.130;11.356;2023-04-02T12:26:39;0.30;;;0.30;;
54745;SDS011;40640;48.130;11.356;2023-04-02T12:30:42;0.88;;;0.60;;
54745;SDS011;40640;48.130;11.356;2023-04-02T12:34:46;2.17;;;1.02;;
54745;SDS011;40640;48.130;11.356;2023-04-02T12:38:51;1.98;;;1.52;;
54745;SDS011;40640;48.130;11.356;2023-04-02T12:42:55;1.15;;;0.60;;
54745;SDS011;40640;48.130;11.356;2023-04-02T12:46:58;1.70;;;1.17;;
54745;SDS011;40640;48.130;11.356;2023-04-02T12:51:01;1.38;;;0.65;;
54745;SDS011;40640;48.130;11.356;2023-04-02T12:55:14;2.65;;;1.65;;
54745;SDS011;40640;48.130;11.356;2023-04-02T12:59:27;1.45;;;0.60;;
54745;SDS011;40640;48.130;11.356;2023-04-02T13:03:32;2.10;;;0.40;;
54745;SDS011;40640;48.130;11.356;2023-04-02T13:07:35;0.68;;;0.68;;
54745;SDS011;40640;48.130;11.356;2023-04-02T13:11:40;0.93;;;0.68;;
54745;SDS011;40640;48.130;11.356;2023-04-02T13:15:43;2.35;;;0.77;;
54745;SDS011;40640;48.130;11.356;2023-04-02T13:19:46;1.00;;;0.90;;
54745;SDS011;40640;48.130;11.356;2023-04-02T13:23:49;3.25;;;1.33;;
54745;SDS011;40640;48.130;11.356;2023-04-02T13:27:53;1.52;;;0.70;;
54745;SDS011;40640;48.130;11.356;2023-04-02T13:31:57;0.90;;;0.80;;
54745;SDS011;40640;48.130;11.356;2023-04-02T13:36:01;2.15;;;0.63;;
54745;SDS011;40640;48.130;11.356;2023-04-02T13:40:05;0.93;;;0.80;;
54745;SDS011;40640;48.130;11.356;2023-04-02T13:44:18;4.95;;;0.80;;
54745;SDS011;40640;48.130;11.356;2023-04-02T13:48:23;1.05;;;0.75;;
54745;SDS011;40640;48.130;11.356;2023-04-02T13:52:29;0.70;;;0.47;;
54745;SDS011;40640;48.130;11.356;2023-04-02T13:56:31;2.08;;;1.10;;
54745;SDS011;40640;48.130;11.356;2023-04-02T14:00:36;1.27;;;0.95;;
54745;SDS011;40640;48.130;11.356;2023-04-02T14:04:39;2.97;;;0.93;;
54745;SDS011;40640;48.130;11.356;2023-04-02T14:08:47;1.17;;;1.00;;
54745;SDS011;40640;48.130;11.356;2023-04-02T14:13:02;1.83;;;0.55;;
54745;SDS011;40640;48.130;11.356;2023-04-02T14:21:26;1.63;;;1.10;;
54745;SDS011;40640;48.130;11.356;2023-04-02T14:25:37;1.95;;;1.08;;
54745;SDS011;40640;48.130;11.356;2023-04-02T14:29:46;2.10;;;1.27;;
54745;SDS011;40640;48.130;11.356;2023-04-02T14:34:00;2.17;;;1.00;;
54745;SDS011;40640;48.130;11.356;2023-04-02T14:38:10;1.25;;;0.70;;
54745;SDS011;40640;48.130;11.356;2023-04-02T14:42:19;1.90;;;0.90;;
54745;SDS011;40640;48.130;11.356;2023-04-02T14:46:29;1.45;;;1.10;;
54745;SDS011;40640;48.130;11.356;2023-04-02T14:50:38;0.80;;;0.80;;
54745;SDS011;40640;48.130;11.356;2023-04-02T14:54:44;0.63;;;0.50;;
54745;SDS011;40640;48.130;11.356;2023-04-02T14:58:53;0.57;;;0.30;;
54745;SDS011;40640;48.130;11.356;2023-04-02T15:03:05;0.40;;;0.40;;
54745;SDS011;40640;48.130;11.356;2023-04-02T15:07:15;0.20;;;0.20;;
54745;SDS011;40640;48.130;11.356;2023-04-02T15:11:22;0.73;;;0.38;;
54745;SDS011;40640;48.130;11.356;2023-04-02T15:15:32;4.03;;;2.08;;
54745;SDS011;40640;48.130;11.356;2023-04-02T15:19:41;1.10;;;0.52;;
54745;SDS011;40640;48.130;11.356;2023-04-02T15:23:48;0.35;;;0.35;;
54745;SDS011;40640;48.130;11.356;2023-04-02T15:28:01;0.52;;;0.43;;
54745;SDS011;40640;48.130;11.356;2023-04-02T15:32:16;1.38;;;0.75;;
54745;SDS011;40640;48.130;11.356;2023-04-02T15:40:57;1.83;;;1.50;;
54745;SDS011;40640;48.130;11.356;2023-04-02T15:45:14;1.40;;;0.73;;
54745;SDS011;40640;48.130;11.356;2023-04-02T15:49:32;1.40;;;0.70;;
54745;SDS011;40640;48.130;11.356;2023-04-02T15:53:45;0.85;;;0.75;;
54745;SDS011;40640;48.130;11.356;2023-04-02T15:58:11;0.82;;;0.82;;
54745;SDS011;40640;48.130;11.356;2023-04-02T16:02:27;1.23;;;0.95;;
54745;SDS011;40640;48.130;11.356;2023-04-02T16:06:42;0.80;;;0.70;;
54745;SDS011;40640;48.130;11.356;2023-04-02T16:11:01;0.88;;;0.77;;
54745;SDS011;40640;48.130;11.356;2023-04-02T16:15:12;0.73;;;0.63;;
54745;SDS011;40640;48.130;11.356;2023-04-02T16:19:19;1.35;;;1.17;;
54745;SDS011;40640;48.130;11.356;2023-04-02T16:23:29;1.77;;;1.13;;
54745;SDS011;40640;48.130;11.356;2023-04-02T16:27:36;1.33;;;1.23;;
54745;SDS011;40640;48.130;11.356;2023-04-02T16:31:47;1.40;;;1.30;;
54745;SDS011;40640;48.130;11.356;2023-04-02T16:35:58;3.85;;;1.55;;
54745;SDS011;40640;48.130;11.356;2023-04-02T16:40:14;2.72;;;1.70;;
54745;SDS011;40640;48.130;11.356;2023-04-02T16:44:26;2.10;;;1.75;;
54745;SDS011;40640;48.130;11.356;2023-04-02T16:48:42;2.20;;;2.00;;
54745;SDS011;40640;48.130;11.356;2023-04-02T16:52:55;4.28;;;2.08;;
54745;SDS011;40640;48.130;11.356;2023-04-02T16:57:16;2.95;;;2.42;;
54745;SDS011;40640;48.130;11.356;2023-04-02T17:01:26;3.30;;;2.20;;
54745;SDS011;40640;48.130;11.356;2023-04-02T17:05:41;2.13;;;1.92;;
54745;SDS011;40640;48.130;11.356;2023-04-02T17:09:56;2.88;;;2.63;;
54745;SDS011;40640;48.130;11.356;2023-04-02T17:14:16;4.32;;;2.35;;
54745;SDS011;40640;48.130;11.356;2023-04-02T17:18:25;3.03;;;2.58;;
54745;SDS011;40640;48.130;11.356;2023-04-02T17:22:29;3.08;;;2.65;;
54745;SDS011;40640;48.130;11.356;2023-04-02T17:26:33;2.45;;;2.20;;
54745;SDS011;40640;48.130;11.356;2023-04-02T17:30:39;3.30;;;2.20;;
54745;SDS011;40640;48.130;11.356;2023-04-02T17:34:44;3.72;;;2.85;;
54745;SDS011;40640;48.130;11.356;2023-04-02T17:38:49;2.90;;;2.60;;
54745;SDS011;40640;48.130;11.356;2023-04-02T17:43:02;3.25;;;2.85;;
54745;SDS011;40640;48.130;11.356;2023-04-02T17:47:12;4.15;;;2.90;;
54745;SDS011;40640;48.130;11.356;2023-04-02T17:51:21;3.00;;;2.60;;
54745;SDS011;40640;48.130;11.356;2023-04-02T17:55:35;3.60;;;2.78;;
54745;SDS011;40640;48.130;11.356;2023-04-02T17:59:54;3.30;;;3.00;;
54745;SDS011;40640;48.130;11.356;2023-04-02T18:04:18;2.72;;;2.53;;
54745;SDS011;40640;48.130;11.356;2023-04-02T18:08:30;3.00;;;2.67;;
54745;SDS011;40640;48.130;11.356;2023-04-02T18:12:47;2.67;;;2.47;;
54745;SDS011;40640;48.130;11.356;2023-04-02T18:16:59;3.05;;;2.67;;
54745;SDS011;40640;48.130;11.356;2023-04-02T18:21:11;4.13;;;3.35;;
54745;SDS011;40640;48.130;11.356;2023-04-02T18:25:23;3.03;;;2.72;;
54745;SDS011;40640;48.130;11.356;2023-04-02T18:29:36;3.70;;;3.30;;
54745;SDS011;40640;48.130;11.356;2023-04-02T18:38:25;3.95;;;3.55;;
54745;SDS011;40640;48.130;11.356;2023-04-02T18:42:46;4.68;;;4.13;;
54745;SDS011;40640;48.130;11.356;2023-04-02T18:47:01;4.43;;;4.03;;
54745;SDS011;40640;48.130;11.356;2023-04-02T18:51:09;4.38;;;3.97;;
54745;SDS011;40640;48.130;11.356;2023-04-02T18:55:17;3.95;;;3.55;;
54745;SDS011;40640;48.130;11.356;2023-04-02T18:59:32;4.50;;;4.10;;
54745;SDS011;40640;48.130;11.356;2023-04-02T19:03:42;4.93;;;4.00;;
54745;SDS011;40640;48.130;11.356;2023-04-02T19:07:50;5.95;;;4.80;;
54745;SDS011;40640;48.130;11.356;2023-04-02T19:11:59;5.40;;;4.25;;
54745;SDS011;40640;48.130;11.356;2023-04-02T19:16:12;5.65;;;4.63;;
54745;SDS011;40640;48.130;11.356;2023-04-02T19:20:30;5.70;;;4.95;;
54745;SDS011;40640;48.130;11.356;2023-04-02T19:29:15;4.13;;;3.72;;
54745;SDS011;40640;48.130;11.356;2023-04-02T19:33:29;4.45;;;3.75;;
54745;SDS011;40640;48.130;11.356;2023-04-02T19:37:41;5.03;;;3.63;;
54745;SDS011;40640;48.130;11.356;2023-04-02T19:41:50;4.55;;;3.80;;
54745;SDS011;40640;48.130;11.356;2023-04-02T19:45:54;6.22;;;2.92;;
54745;SDS011;40640;48.130;11.356;2023-04-02T19:49:57;5.47;;;3.30;;
54745;SDS011;40640;48.130;11.356;2023-04-02T19:54:01;4.72;;;3.10;;
54745;SDS011;40640;48.130;11.356;2023-04-02T19:58:04;4.07;;;3.08;;
54745;SDS011;40640;48.130;11.356;2023-04-02T20:02:19;4.63;;;3.58;;
54745;SDS011;40640;48.130;11.356;2023-04-02T20:06:22;3.60;;;3.00;;
54745;SDS011;40640;48.130;11.356;2023-04-02T20:10:27;4.78;;;3.38;;
54745;SDS011;40640;48.130;11.356;2023-04-02T20:14:30;4.40;;;3.20;;
54745;SDS011;40640;48.130;11.356;2023-04-02T20:18:32;5.63;;;4.03;;
54745;SDS011;40640;48.130;11.356;2023-04-02T20:22:37;4.38;;;3.60;;
54745;SDS011;40640;48.130;11.356;2023-04-02T20:26:41;7.60;;;4.30;;
54745;SDS011;40640;48.130;11.356;2023-04-02T20:30:44;4.60;;;3.78;;
54745;SDS011;40640;48.130;11.356;2023-04-02T20:34:47;4.57;;;3.80;;
54745;SDS011;40640;48.130;11.356;2023-04-02T20:38:49;4.75;;;3.83;;
54745;SDS011;40640;48.130;11.356;2023-04-02T20:42:54;5.13;;;3.90;;
54745;SDS011;40640;48.130;11.356;2023-04-02T20:46:57;6.53;;;4.10;;
54745;SDS011;40640;48.130;11.356;2023-04-02T20:51:00;5.72;;;4.22;;
54745;SDS011;40640;48.130;11.356;2023-04-02T20:55:05;5.70;;;4.10;;
54745;SDS011;40640;48.130;11.356;2023-04-02T20:59:10;6.32;;;4.20;;
54745;SDS011;40640;48.130;11.356;2023-04-02T21:03:13;7.40;;;4.38;;
54745;SDS011;40640;48.130;11.356;2023-04-02T21:07:17;4.75;;;3.83;;
54745;SDS011;40640;48.130;11.356;2023-04-02T21:11:20;5.25;;;4.07;;
54745;SDS011;40640;48.130;11.356;2023-04-02T21:15:25;4.75;;;4.13;;
54745;SDS011;40640;48.130;11.356;2023-04-02T21:19:28;5.05;;;4.35;;
54745;SDS011;40640;48.130;11.356;2023-04-02T21:23:33;7.60;;;4.30;;
54745;SDS011;40640;48.130;11.356;2023-04-02T21:27:36;4.70;;;3.80;;
54745;SDS011;40640;48.130;11.356;2023-04-02T21:31:40;5.93;;;4.07;;
54745;SDS011;40640;48.130;11.356;2023-04-02T21:35:43;6.82;;;4.70;;
54745;SDS011;40640;48.130;11.356;2023-04-02T21:39:46;7.63;;;4.55;;
54745;SDS011;40640;48.130;11.356;2023-04-02T21:43:49;6.57;;;4.63;;
54745;SDS011;40640;48.130;11.356;2023-04-02T21:47:53;6.28;;;4.90;;
54745;SDS011;40640;48.130;11.356;2023-04-02T21:51:56;9.13;;;4.90;;
54745;SDS011;40640;48.130;11.356;2023-04-02T21:56:00;6.70;;;5.13;;
54745;SDS011;40640;48.130;11.356;2023-04-02T22:00:03;10.95;;;5.93;;
54745;SDS011;40640;48.130;11.356;2023-04-02T22:04:15;8.20;;;5.00;;
54745;SDS011;40640;48.130;11.356;2023-04-02T22:08:18;7.82;;;5.28;;
54745;SDS011;40640;48.130;11.356;2023-04-02T22:12:21;8.82;;;5.50;;
54745;SDS011;40640;48.130;11.356;2023-04-02T22:16:25;9.15;;;5.68;;
54745;SDS011;40640;48.130;11.356;2023-04-02T22:20:31;8.45;;;5.07;;
54745;SDS011;40640;48.130;11.356;2023-04-02T22:24:34;13.98;;;5.20;;
54745;SDS011;40640;48.130;11.356;2023-04-02T22:28:37;7.78;;;5.25;;
54745;SDS011;40640;48.130;11.356;2023-04-02T22:32:40;10.43;;;5.50;;
54745;SDS011;40640;48.130;11.356;2023-04-02T22:36:47;10.77;;;5.82;;
54745;SDS011;40640;48.130;11.356;2023-04-02T22:40:49;9.77;;;6.38;;
54745;SDS011;40640;48.130;11.356;2023-04-02T22:44:52;9.65;;;5.78;;
54745;SDS011;40640;48.130;11.356;2023-04-02T22:48:55;9.68;;;5.97;;
54745;SDS011;40640;48.130;11.356;2023-04-02T22:53:00;10.07;;;5.93;;
54745;SDS011;40640;48.130;11.356;2023-04-02T22:57:03;8.98;;;6.32;;
54745;SDS011;40640;48.130;11.356;2023-04-02T23:01:06;12.32;;;6.20;;
54745;SDS011;40640;48.130;11.356;2023-04-02T23:05:11;8.45;;;5.75;;
54745;SDS011;40640;48.130;11.356;2023-04-02T23:09:15;16.55;;;6.70;;
54745;SDS011;40640;48.130;11.356;2023-04-02T23:13:18;14.43;;;6.85;;
54745;SDS011;40640;48.130;11.356;2023-04-02T23:17:21;10.88;;;6.78;;
54745;SDS011;40640;48.130;11.356;2023-04-02T23:21:24;10.35;;;6.97;;
54745;SDS011;40640;48.130;11.356;2023-04-02T23:25:29;10.50;;;7.20;;
54745;SDS011;40640;48.130;11.356;2023-04-02T23:29:32;12.75;;;6.90;;
54745;SDS011;40640;48.130;11.356;2023-04-02T23:33:35;10.70;;;6.25;;
54745;SDS011;40640;48.130;11.356;2023-04-02T23:37:38;12.15;;;6.35;;
54745;SDS011;40640;48.130;11.356;2023-04-02T23:41:43;9.85;;;5.72;;
54745;SDS011;40640;48.130;11.356;2023-04-02T23:45:47;11.85;;;6.40;;
54745;SDS011;40640;48.130;11.356;2023-04-02T23:49:50;14.30;;;6.50;;
54745;SDS011;40640;48.130;11.356;2023-04-02T23:53:53;10.13;;;6.13;;
54745;SDS011;40640;48.130;11.356;2023-04-02T23:57:58;10.65;;;6.45;;
